createdAt,value
2022-07-27T00:01:43.919Z,19.69
2022-07-27T00:04:18.315Z,20.23
2022-07-27T00:06:44.845Z,20.25
2022-07-27T00:09:11.890Z,20.03
2022-07-27T00:11:38.873Z,19.75
2022-07-27T00:14:05.451Z,19.60
2022-07-27T00:16:32.375Z,19.77
2022-07-27T00:18:58.897Z,20.01
2022-07-27T00:21:26.654Z,19.98
2022-07-27T00:23:54.377Z,20.06
2022-07-27T00:26:21.148Z,19.72
2022-07-27T00:28:47.961Z,19.69
2022-07-27T00:31:14.670Z,20.01
2022-07-27T00:33:41.228Z,19.80
2022-07-27T00:36:08.020Z,19.25
2022-07-27T00:38:34.507Z,19.33
2022-07-27T00:41:01.039Z,19.60
2022-07-27T00:43:27.776Z,19.41
2022-07-27T00:45:54.253Z,18.36
2022-07-27T00:48:20.807Z,18.65
2022-07-27T00:50:48.140Z,18.94
2022-07-27T00:53:14.827Z,18.46
2022-07-27T00:55:41.386Z,19.32
2022-07-27T00:58:09.005Z,19.43
2022-07-27T01:00:37.179Z,19.43
2022-07-27T01:03:09.101Z,19.43
2022-07-27T01:05:43.325Z,19.15
2022-07-27T01:08:13.737Z,19.20
2022-07-27T01:10:44.463Z,19.30
2022-07-27T01:13:13.176Z,19.27
2022-07-27T01:15:40.811Z,18.62
2022-07-27T01:18:27.003Z,18.31
2022-07-27T01:20:54.151Z,18.11
2022-07-27T01:23:20.629Z,18.77
2022-07-27T01:25:47.278Z,18.95
2022-07-27T01:28:13.737Z,19.04
2022-07-27T01:30:40.402Z,19.30
2022-07-27T01:33:10.919Z,19.19
2022-07-27T01:35:39.019Z,18.87
2022-07-27T01:38:07.522Z,18.09
2022-07-27T01:40:36.843Z,18.13
2022-07-27T01:43:05.317Z,17.48
2022-07-27T01:45:32.101Z,17.36
2022-07-27T01:47:58.580Z,18.21
2022-07-27T01:50:25.075Z,18.50
2022-07-27T01:52:51.518Z,18.83
2022-07-27T01:55:17.978Z,19.01
2022-07-27T01:57:44.486Z,19.03
2022-07-27T02:00:12.132Z,17.93
2022-07-27T02:02:39.782Z,18.86
2022-07-27T02:05:07.603Z,19.00
2022-07-27T02:07:34.134Z,19.05
2022-07-27T02:10:00.607Z,18.85
2022-07-27T02:12:36.138Z,18.34
2022-07-27T02:15:06.976Z,18.76
2022-07-27T02:17:35.164Z,18.74
2022-07-27T02:20:02.333Z,18.58
2022-07-27T02:22:29.080Z,18.17
2022-07-27T02:24:55.878Z,18.70
2022-07-27T02:27:22.569Z,18.36
2022-07-27T02:29:49.102Z,18.66
2022-07-27T02:32:17.392Z,18.57
2022-07-27T02:34:44.181Z,17.88
2022-07-27T02:37:10.806Z,18.54
2022-07-27T02:39:37.393Z,17.92
2022-07-27T02:42:04.221Z,18.38
2022-07-27T02:44:30.739Z,18.52
2022-07-27T02:46:57.353Z,17.76
2022-07-27T02:49:24.097Z,18.13
2022-07-27T02:51:52.106Z,17.62
2022-07-27T02:54:19.833Z,18.12
2022-07-27T02:56:46.300Z,17.98
2022-07-27T02:59:13.078Z,18.01
2022-07-27T03:01:40.012Z,18.04
2022-07-27T03:04:06.572Z,17.84
2022-07-27T03:06:33.095Z,18.30
2022-07-27T03:09:02.521Z,18.26
2022-07-27T03:11:28.989Z,18.34
2022-07-27T03:13:55.826Z,18.19
2022-07-27T03:16:22.426Z,18.33
2022-07-27T03:18:49.888Z,18.24
2022-07-27T03:21:16.731Z,18.08
2022-07-27T03:23:43.273Z,18.17
2022-07-27T03:26:09.779Z,17.98
2022-07-27T03:28:36.323Z,17.89
2022-07-27T03:31:03.879Z,17.89
2022-07-27T03:33:30.468Z,18.14
2022-07-27T03:35:57.503Z,18.17
2022-07-27T03:38:24.009Z,18.24
2022-07-27T03:40:50.521Z,18.22
2022-07-27T03:43:17.015Z,17.46
2022-07-27T03:45:44.508Z,17.43
2022-07-27T03:48:11.148Z,17.81
2022-07-27T03:50:37.891Z,17.12
2022-07-27T03:53:04.474Z,17.15
2022-07-27T03:55:30.999Z,16.80
2022-07-27T03:57:57.486Z,16.80
2022-07-27T04:00:24.503Z,16.57
2022-07-27T04:02:51.843Z,17.04
2022-07-27T04:05:18.490Z,17.70
2022-07-27T04:07:45.044Z,17.40
2022-07-27T04:10:11.967Z,17.63
2022-07-27T04:12:41.496Z,17.60
2022-07-27T04:15:08.495Z,17.35
2022-07-27T04:17:54.763Z,18.02
2022-07-27T04:20:21.756Z,17.70
2022-07-27T04:22:48.786Z,17.06
2022-07-27T04:25:15.303Z,16.68
2022-07-27T04:27:41.848Z,17.71
2022-07-27T04:30:11.884Z,17.30
2022-07-27T04:32:38.496Z,17.81
2022-07-27T04:35:06.470Z,17.18
2022-07-27T04:37:33.372Z,17.75
2022-07-27T04:40:00.872Z,17.17
2022-07-27T04:42:27.557Z,18.16
2022-07-27T04:44:54.201Z,18.11
2022-07-27T04:47:20.869Z,18.43
2022-07-27T04:49:47.436Z,18.47
2022-07-27T04:52:17.487Z,18.01
2022-07-27T04:54:45.056Z,18.14
2022-07-27T04:57:11.636Z,17.48
2022-07-27T04:59:38.172Z,17.82
2022-07-27T05:02:04.705Z,18.39
2022-07-27T05:04:31.292Z,18.01
2022-07-27T05:06:57.883Z,17.86
2022-07-27T05:09:24.501Z,17.73
2022-07-27T05:11:51.870Z,17.84
2022-07-27T05:14:19.740Z,17.38
2022-07-27T05:16:47.968Z,17.70
2022-07-27T05:19:15.051Z,17.89
2022-07-27T05:21:41.832Z,17.16
2022-07-27T05:24:08.375Z,17.81
2022-07-27T05:26:34.845Z,17.35
2022-07-27T05:29:01.385Z,17.70
2022-07-27T05:31:27.951Z,17.89
2022-07-27T05:33:58.215Z,18.18
2022-07-27T05:36:27.958Z,18.81
2022-07-27T05:38:57.589Z,18.61
2022-07-27T05:41:26.193Z,18.40
2022-07-27T05:43:54.482Z,18.46
2022-07-27T05:46:21.785Z,18.61
2022-07-27T05:48:48.544Z,18.99
2022-07-27T05:51:15.092Z,18.75
2022-07-27T05:53:41.603Z,18.37
2022-07-27T05:56:08.141Z,18.93
2022-07-27T05:58:34.745Z,18.44
2022-07-27T06:01:01.462Z,19.25
2022-07-27T06:03:28.102Z,19.84
2022-07-27T06:06:14.642Z,18.91
2022-07-27T06:08:41.212Z,18.68
2022-07-27T06:11:07.731Z,18.90
2022-07-27T06:13:36.583Z,19.54
2022-07-27T06:16:04.354Z,19.22
2022-07-27T06:18:30.980Z,18.98
2022-07-27T06:20:57.824Z,19.31
2022-07-27T06:23:24.533Z,19.65
2022-07-27T06:25:51.024Z,20.11
2022-07-27T06:28:19.208Z,19.24
2022-07-27T06:30:46.737Z,19.60
2022-07-27T06:33:14.257Z,20.20
2022-07-27T06:35:41.746Z,20.23
2022-07-27T06:38:08.793Z,20.46
2022-07-27T06:40:37.644Z,20.99
2022-07-27T06:43:04.338Z,21.24
2022-07-27T06:45:30.981Z,21.20
2022-07-27T06:47:57.539Z,21.85
2022-07-27T06:50:24.223Z,21.60
2022-07-27T06:52:51.081Z,21.56
2022-07-27T06:55:17.858Z,21.82
2022-07-27T06:57:46.333Z,22.28
2022-07-27T07:00:13.767Z,20.90
2022-07-27T07:03:00.725Z,21.73
2022-07-27T07:05:27.474Z,21.48
2022-07-27T07:07:54.003Z,22.05
2022-07-27T07:10:21.013Z,22.38
2022-07-27T07:12:55.327Z,21.15
2022-07-27T07:15:23.937Z,22.25
2022-07-27T07:17:50.532Z,21.98
2022-07-27T07:20:17.107Z,21.84
2022-07-27T07:22:43.553Z,21.15
2022-07-27T07:25:10.038Z,21.75
2022-07-27T07:27:36.548Z,22.95
2022-07-27T07:30:06.621Z,22.48
2022-07-27T07:32:33.671Z,24.14
2022-07-27T07:35:01.550Z,22.96
2022-07-27T07:37:33.486Z,24.03
2022-07-27T07:40:18.850Z,23.57
2022-07-27T07:42:56.450Z,23.86
2022-07-27T07:45:24.405Z,22.62
2022-07-27T07:47:51.832Z,22.37
2022-07-27T07:50:19.543Z,23.31
2022-07-27T07:52:51.376Z,23.43
2022-07-27T07:55:26.353Z,23.39
2022-07-27T07:57:53.903Z,23.10
2022-07-27T08:00:21.708Z,23.65
2022-07-27T08:02:51.713Z,23.52
2022-07-27T08:05:18.665Z,23.17
2022-07-27T08:07:45.846Z,24.23
2022-07-27T08:10:14.990Z,23.47
2022-07-27T08:12:43.850Z,23.72
2022-07-27T08:15:11.612Z,22.39
2022-07-27T08:17:38.168Z,22.78
2022-07-27T08:20:06.690Z,22.21
2022-07-27T08:22:33.712Z,23.61
2022-07-27T08:25:00.194Z,22.63
2022-07-27T08:27:26.674Z,22.72
2022-07-27T08:29:53.133Z,23.60
2022-07-27T08:32:20.452Z,23.74
2022-07-27T08:34:47.164Z,22.86
2022-07-27T08:37:15.806Z,22.30
2022-07-27T08:40:38.340Z,23.24
2022-07-27T08:42:30.147Z,23.26
2022-07-27T08:44:58.236Z,23.40
2022-07-27T08:47:25.439Z,23.20
2022-07-27T08:49:52.703Z,23.63
2022-07-27T08:52:20.046Z,23.64
2022-07-27T08:54:47.204Z,22.77
2022-07-27T08:57:13.772Z,22.47
2022-07-27T08:59:40.247Z,21.85
2022-07-27T09:02:11.080Z,22.73
2022-07-27T09:04:40.664Z,22.30
2022-07-27T09:07:07.212Z,22.31
2022-07-27T09:09:45.828Z,23.47
2022-07-27T09:12:12.403Z,22.47
2022-07-27T09:14:41.292Z,22.67
2022-07-27T09:20:18.548Z,21.90
2022-07-27T09:22:47.389Z,21.28
2022-07-27T09:25:16.587Z,22.13
2022-07-27T09:27:45.676Z,20.80
2022-07-27T09:30:16.059Z,21.56
2022-07-27T09:33:14.926Z,22.12
2022-07-27T09:35:41.518Z,22.57
2022-07-27T09:38:22.551Z,23.06
2022-07-27T09:41:00.237Z,22.49
2022-07-27T09:46:16.249Z,23.30
2022-07-27T09:48:42.929Z,22.68
2022-07-27T09:51:55.683Z,22.77
2022-07-27T09:54:00.444Z,23.71
2022-07-27T09:56:32.095Z,23.36
2022-07-27T09:59:00.826Z,23.11
2022-07-27T10:01:30.750Z,22.43
2022-07-27T10:04:02.335Z,22.03
2022-07-27T10:06:35.737Z,21.63
2022-07-27T10:09:09.313Z,22.64
2022-07-27T10:11:36.468Z,22.46
2022-07-27T10:14:03.175Z,23.36
2022-07-27T10:16:31.649Z,23.89
2022-07-27T10:19:34.131Z,23.12
2022-07-27T10:22:00.798Z,22.97
2022-07-27T10:24:32.151Z,23.66
2022-07-27T10:26:59.275Z,22.88
2022-07-27T10:29:26.196Z,24.01
2022-07-27T10:31:52.580Z,23.74
2022-07-27T10:34:36.149Z,23.17
2022-07-27T10:37:13.961Z,23.33
2022-07-27T10:39:52.148Z,23.52
2022-07-27T10:42:24.448Z,23.95
2022-07-27T10:45:03.209Z,23.64
2022-07-27T10:47:34.155Z,22.10
2022-07-27T10:50:15.941Z,23.27
2022-07-27T10:52:44.945Z,23.19
2022-07-27T10:55:30.215Z,24.20
2022-07-27T10:58:02.953Z,24.48
2022-07-27T11:00:55.248Z,23.38
2022-07-27T11:03:26.629Z,23.70
2022-07-27T11:07:14.993Z,23.69
2022-07-27T11:11:56.045Z,24.47
2022-07-27T11:14:30.351Z,24.11
2022-07-27T11:17:07.906Z,24.56
2022-07-27T11:19:59.157Z,25.26
2022-07-27T11:25:26.704Z,24.59
2022-07-27T11:27:53.246Z,25.09
2022-07-27T11:30:27.986Z,24.78
2022-07-27T11:32:55.904Z,23.67
2022-07-27T11:35:24.047Z,24.77
2022-07-27T11:37:59.395Z,24.58
2022-07-27T11:40:56.481Z,24.05
2022-07-27T11:43:13.986Z,23.83
2022-07-27T11:45:42.886Z,24.17
2022-07-27T11:48:12.504Z,24.65
2022-07-27T11:50:58.986Z,24.31
2022-07-27T11:53:27.080Z,24.46
2022-07-27T11:55:53.621Z,24.75
2022-07-27T11:58:20.125Z,24.76
2022-07-27T12:00:46.603Z,24.35
2022-07-27T12:03:32.226Z,25.16
2022-07-27T12:06:13.835Z,25.03
2022-07-27T12:08:41.141Z,25.40
2022-07-27T12:11:10.640Z,24.34
2022-07-27T12:13:37.124Z,24.33
2022-07-27T12:16:03.905Z,24.55
2022-07-27T12:18:43.686Z,24.69
2022-07-27T12:21:19.590Z,25.28
2022-07-27T12:23:51.097Z,24.83
2022-07-27T12:26:25.270Z,25.55
2022-07-27T12:29:11.106Z,24.78
2022-07-27T12:31:47.923Z,25.80
2022-07-27T12:34:15.224Z,23.66
2022-07-27T12:36:42.406Z,24.84
2022-07-27T12:39:24.974Z,24.11
2022-07-27T12:42:02.741Z,25.17
2022-07-27T12:44:34.406Z,24.24
2022-07-27T12:47:02.582Z,25.32
2022-07-27T12:49:40.803Z,25.36
2022-07-27T12:52:11.182Z,25.20
2022-07-27T12:54:38.331Z,24.80
2022-07-27T12:57:04.875Z,24.56
2022-07-27T12:59:31.421Z,24.72
2022-07-27T13:01:58.070Z,24.91
2022-07-27T13:04:24.670Z,24.78
2022-07-27T13:06:51.231Z,24.92
2022-07-27T13:09:17.773Z,24.57
2022-07-27T13:11:47.891Z,24.87
2022-07-27T13:14:14.925Z,24.96
2022-07-27T13:16:41.560Z,24.68
2022-07-27T13:19:08.243Z,24.33
2022-07-27T13:21:34.836Z,23.81
2022-07-27T13:24:02.760Z,24.88
2022-07-27T13:26:29.231Z,24.48
2022-07-27T13:28:55.701Z,24.72
2022-07-27T13:31:22.314Z,25.45
2022-07-27T13:33:48.808Z,25.08
2022-07-27T13:36:15.401Z,25.02
2022-07-27T13:38:41.893Z,24.55
2022-07-27T13:41:08.601Z,24.54
2022-07-27T13:43:35.151Z,25.16
2022-07-27T13:46:03.361Z,24.79
2022-07-27T13:48:30.032Z,23.71
2022-07-27T13:50:56.573Z,24.28
2022-07-27T13:53:23.098Z,24.70
2022-07-27T13:55:49.656Z,24.21
2022-07-27T13:58:16.196Z,24.57
2022-07-27T14:00:42.785Z,24.05
2022-07-27T14:03:11.254Z,23.65
2022-07-27T14:05:38.145Z,23.71
2022-07-27T14:08:08.640Z,24.08
2022-07-27T14:10:44.525Z,24.05
2022-07-27T14:13:13.710Z,23.94
2022-07-27T14:15:54.398Z,24.09
2022-07-27T14:18:24.391Z,24.53
2022-07-27T14:20:50.957Z,24.25
2022-07-27T14:23:17.466Z,24.99
2022-07-27T14:25:44.059Z,23.91
2022-07-27T14:28:10.548Z,23.26
2022-07-27T14:30:37.050Z,24.65
2022-07-27T14:33:03.703Z,24.00
2022-07-27T14:35:30.558Z,24.31
2022-07-27T14:37:58.446Z,23.23
2022-07-27T14:40:25.686Z,24.15
2022-07-27T14:42:52.269Z,24.00
2022-07-27T14:45:19.812Z,23.75
2022-07-27T14:47:47.475Z,23.91
2022-07-27T14:50:14.941Z,23.74
2022-07-27T14:52:41.845Z,23.83
2022-07-27T14:55:09.490Z,23.93
2022-07-27T14:57:36.947Z,23.51
2022-07-27T15:00:10.260Z,24.54
2022-07-27T15:02:38.091Z,24.36
2022-07-27T15:05:05.449Z,24.68
2022-07-27T15:07:32.510Z,24.22
2022-07-27T15:09:59.105Z,24.63
2022-07-27T15:12:26.115Z,24.06
2022-07-27T15:14:52.890Z,24.49
2022-07-27T15:17:19.696Z,24.37
2022-07-27T15:19:46.531Z,24.91
2022-07-27T15:22:13.060Z,24.56
2022-07-27T15:24:39.546Z,23.76
2022-07-27T15:27:06.135Z,24.29
2022-07-27T15:29:32.706Z,25.06
2022-07-27T15:31:59.346Z,24.61
2022-07-27T15:34:26.836Z,24.31
2022-07-27T15:36:53.270Z,23.91
2022-07-27T15:39:21.531Z,24.74
2022-07-27T15:41:48.010Z,24.42
2022-07-27T15:44:18.672Z,24.63
2022-07-27T15:46:45.153Z,24.28
2022-07-27T15:49:12.352Z,24.88
2022-07-27T15:51:39.107Z,23.44
2022-07-27T15:54:05.612Z,23.99
2022-07-27T15:56:32.315Z,24.81
2022-07-27T15:58:58.873Z,24.05
2022-07-27T16:01:35.179Z,24.05
2022-07-27T16:04:02.358Z,24.79
2022-07-27T16:06:29.218Z,24.83
2022-07-27T16:08:55.738Z,24.51
2022-07-27T16:11:22.971Z,24.69
2022-07-27T16:13:49.512Z,24.82
2022-07-27T16:16:21.970Z,24.03
2022-07-27T16:18:49.003Z,24.78
2022-07-27T16:21:15.487Z,24.98
2022-07-27T16:23:41.976Z,23.88
2022-07-27T16:26:08.750Z,24.20
2022-07-27T16:28:39.226Z,24.45
2022-07-27T16:31:08.103Z,23.72
2022-07-27T16:33:34.859Z,24.06
2022-07-27T16:36:01.540Z,24.30
2022-07-27T16:38:28.495Z,24.32
2022-07-27T16:40:55.009Z,24.22
2022-07-27T16:43:21.568Z,23.65
2022-07-27T16:45:48.152Z,23.77
2022-07-27T16:48:14.879Z,24.25
2022-07-27T16:50:41.363Z,24.61
2022-07-27T16:53:08.002Z,24.64
2022-07-27T16:55:34.470Z,24.58
2022-07-27T16:58:00.960Z,24.06
2022-07-27T17:00:27.442Z,24.32
2022-07-27T17:02:54.013Z,23.58
2022-07-27T17:05:20.840Z,24.17
2022-07-27T17:07:50.241Z,23.93
2022-07-27T17:10:27.211Z,24.33
2022-07-27T17:12:54.564Z,23.26
2022-07-27T17:15:22.387Z,24.27
2022-07-27T17:17:48.847Z,24.31
2022-07-27T17:20:15.350Z,24.41
2022-07-27T17:22:54.286Z,24.16
2022-07-27T17:25:21.698Z,24.58
2022-07-27T17:27:48.630Z,23.82
2022-07-27T17:30:16.134Z,24.65
2022-07-27T17:32:42.888Z,24.23
2022-07-27T17:35:09.671Z,24.45
2022-07-27T17:38:03.472Z,23.95
2022-07-27T17:40:22.696Z,24.64
2022-07-27T17:42:52.117Z,24.59
2022-07-27T17:45:18.820Z,24.34
2022-07-27T17:47:45.359Z,24.59
2022-07-27T17:50:12.152Z,23.66
2022-07-27T17:52:38.777Z,24.35
2022-07-27T17:55:05.958Z,23.00
2022-07-27T17:57:32.527Z,23.23
2022-07-27T17:59:59.056Z,23.15
2022-07-27T18:02:25.762Z,23.21
2022-07-27T18:04:52.417Z,23.52
2022-07-27T18:07:19.315Z,23.86
2022-07-27T18:09:45.838Z,23.03
2022-07-27T18:12:12.349Z,23.08
2022-07-27T18:14:58.762Z,24.08
2022-07-27T18:17:25.317Z,23.14
2022-07-27T18:19:51.776Z,23.60
2022-07-27T18:22:18.292Z,23.42
2022-07-27T18:24:44.792Z,23.87
2022-07-27T18:27:11.335Z,24.06
2022-07-27T18:29:37.902Z,22.43
2022-07-27T18:32:05.451Z,23.67
2022-07-27T18:34:32.569Z,23.76
2022-07-27T18:36:59.116Z,22.98
2022-07-27T18:39:33.687Z,23.38
2022-07-27T18:42:03.687Z,23.67
2022-07-27T18:44:36.709Z,23.67
2022-07-27T18:47:05.358Z,23.75
2022-07-27T18:49:31.998Z,23.41
2022-07-27T18:51:58.632Z,23.58
2022-07-27T18:54:25.108Z,23.40
2022-07-27T18:56:52.295Z,23.54
2022-07-27T18:59:18.987Z,23.63
2022-07-27T19:01:45.530Z,23.44
2022-07-27T19:04:12.766Z,23.24
2022-07-27T19:06:42.576Z,23.26
2022-07-27T19:09:11.204Z,23.20
2022-07-27T19:11:37.877Z,23.20
2022-07-27T19:14:04.445Z,23.02
2022-07-27T19:16:31.035Z,23.24
2022-07-27T19:18:57.623Z,23.19
2022-07-27T19:21:24.258Z,22.99
2022-07-27T19:23:50.775Z,23.15
2022-07-27T19:26:17.628Z,22.88
2022-07-27T19:28:44.324Z,22.82
2022-07-27T19:31:22.713Z,22.62
2022-07-27T19:33:51.011Z,22.80
2022-07-27T19:36:18.049Z,22.46
2022-07-27T19:38:44.643Z,22.68
2022-07-27T19:41:11.142Z,22.59
2022-07-27T19:43:37.700Z,22.65
2022-07-27T19:46:04.271Z,22.60
2022-07-27T19:48:30.842Z,22.55
2022-07-27T19:51:00.924Z,22.51
2022-07-27T19:53:31.350Z,22.36
2022-07-27T19:55:59.878Z,22.37
2022-07-27T19:58:26.506Z,22.35
2022-07-27T20:00:53.238Z,22.34
2022-07-27T20:03:20.511Z,22.20
2022-07-27T20:05:47.843Z,22.22
2022-07-27T20:08:15.238Z,22.23
2022-07-27T20:10:42.566Z,22.00
2022-07-27T20:13:10.025Z,21.83
2022-07-27T20:15:36.905Z,22.00
2022-07-27T20:18:04.012Z,21.78
2022-07-27T20:20:30.801Z,21.88
2022-07-27T20:22:57.451Z,21.89
2022-07-27T20:25:24.478Z,21.58
2022-07-27T20:27:52.032Z,21.78
2022-07-27T20:30:19.868Z,21.53
2022-07-27T20:32:48.466Z,21.81
2022-07-27T20:35:15.388Z,21.17
2022-07-27T20:37:43.003Z,21.49
2022-07-27T20:40:11.676Z,21.14
2022-07-27T20:42:42.747Z,20.94
2022-07-27T20:45:12.704Z,21.46
2022-07-27T20:47:39.278Z,21.39
2022-07-27T20:50:10.884Z,21.37
2022-07-27T20:52:41.209Z,21.28
2022-07-27T20:55:08.756Z,21.21
2022-07-27T20:57:36.142Z,20.76
2022-07-27T21:00:03.337Z,20.99
2022-07-27T21:02:29.873Z,21.02
2022-07-27T21:04:57.174Z,21.10
2022-07-27T21:07:23.714Z,21.23
2022-07-27T21:09:50.200Z,21.00
2022-07-27T21:12:16.758Z,20.75
2022-07-27T21:14:43.606Z,20.76
2022-07-27T21:17:10.430Z,20.94
2022-07-27T21:19:37.144Z,20.43
2022-07-27T21:22:04.083Z,20.59
2022-07-27T21:24:30.577Z,20.35
2022-07-27T21:27:00.971Z,20.43
2022-07-27T21:29:31.843Z,19.57
2022-07-27T21:31:58.704Z,20.39
2022-07-27T21:34:25.210Z,20.53
2022-07-27T21:36:51.756Z,20.50
2022-07-27T21:39:20.022Z,20.12
2022-07-27T21:41:46.889Z,20.61
2022-07-27T21:44:14.307Z,19.90
2022-07-27T21:46:41.247Z,20.54
2022-07-27T21:49:13.152Z,20.05
2022-07-27T21:51:40.213Z,19.77
2022-07-27T21:54:06.860Z,19.87
2022-07-27T21:56:40.793Z,20.49
2022-07-27T21:59:08.467Z,20.31
2022-07-27T22:01:35.030Z,20.08
2022-07-27T22:04:01.981Z,20.21
2022-07-27T22:06:28.539Z,20.01
2022-07-27T22:08:55.020Z,19.94
2022-07-27T22:11:21.539Z,20.01
2022-07-27T22:13:48.004Z,18.78
2022-07-27T22:16:14.580Z,19.27
2022-07-27T22:18:41.107Z,19.96
2022-07-27T22:21:08.688Z,20.06
2022-07-27T22:23:35.234Z,20.01
2022-07-27T22:26:01.715Z,19.37
2022-07-27T22:28:28.180Z,18.06
2022-07-27T22:31:20.418Z,19.46
2022-07-27T22:33:44.530Z,18.21
2022-07-27T22:36:11.960Z,18.61
2022-07-27T22:38:39.122Z,19.39
2022-07-27T22:41:05.657Z,18.76
2022-07-27T22:43:32.156Z,19.26
2022-07-27T22:45:58.966Z,19.57
2022-07-27T22:48:25.587Z,19.15
2022-07-27T22:50:52.080Z,19.05
2022-07-27T22:53:18.633Z,18.67
2022-07-27T22:55:45.152Z,18.01
2022-07-27T22:58:11.807Z,19.01
2022-07-27T23:00:41.639Z,19.01
2022-07-27T23:03:08.154Z,19.11
2022-07-27T23:05:34.757Z,17.14
2022-07-27T23:08:01.348Z,18.24
2022-07-27T23:10:45.719Z,18.52
2022-07-27T23:13:17.315Z,17.58
2022-07-27T23:15:44.781Z,18.25
2022-07-27T23:18:12.195Z,18.39
2022-07-27T23:20:39.512Z,18.75
2022-07-27T23:23:15.774Z,17.94
2022-07-27T23:25:45.242Z,17.91
2022-07-27T23:28:11.999Z,19.06
2022-07-27T23:30:38.519Z,18.89
2022-07-27T23:33:05.159Z,18.10
2022-07-27T23:35:32.138Z,17.63
2022-07-27T23:38:00.098Z,18.31
2022-07-27T23:40:26.686Z,18.54
2022-07-27T23:42:53.491Z,18.27
2022-07-27T23:45:20.131Z,18.39
2022-07-27T23:47:46.601Z,18.48
2022-07-27T23:50:14.064Z,18.48
2022-07-27T23:52:40.614Z,17.99
2022-07-27T23:55:07.959Z,17.15
2022-07-27T23:57:34.537Z,17.59
